sensor_id;sensor_type;location;lat;lon;timestamp;temperature;humidity
7502;DHT22;3792;47.740;7.606;2023-05-23T00:00:56;17.90;99.90
7502;DHT22;3792;47.740;7.606;2023-05-23T00:03:24;18.00;99.90
7502;DHT22;3792;47.740;7.606;2023-05-23T00:05:51;18.00;99.90
7502;DHT22;3792;47.740;7.606;2023-05-23T00:08:18;18.00;99.90
7502;DHT22;3792;47.740;7.606;2023-05-23T00:10:45;17.50;99.90
7502;DHT22;3792;47.740;7.606;2023-05-23T00:13:12;17.20;99.90
7502;DHT22;3792;47.740;7.606;2023-05-23T00:15:41;17.20;99.90
7502;DHT22;3792;47.740;7.606;2023-05-23T00:18:09;17.20;99.90
7502;DHT22;3792;47.740;7.606;2023-05-23T00:20:37;17.30;99.90
7502;DHT22;3792;47.740;7.606;2023-05-23T00:23:06;17.40;99.90
7502;DHT22;3792;47.740;7.606;2023-05-23T00:25:34;17.50;99.90
7502;DHT22;3792;47.740;7.606;2023-05-23T00:28:02;17.60;99.90
7502;DHT22;3792;47.740;7.606;2023-05-23T00:30:31;17.50;99.90
7502;DHT22;3792;47.740;7.606;2023-05-23T00:32:59;17.50;99.90
7502;DHT22;3792;47.740;7.606;2023-05-23T00:35:26;17.50;99.90
7502;DHT22;3792;47.740;7.606;2023-05-23T00:37:54;17.60;99.90
7502;DHT22;3792;47.740;7.606;2023-05-23T00:40:21;17.60;99.90
7502;DHT22;3792;47.740;7.606;2023-05-23T00:42:48;17.70;99.90
7502;DHT22;3792;47.740;7.606;2023-05-23T00:45:15;17.80;99.90
7502;DHT22;3792;47.740;7.606;2023-05-23T00:47:43;17.80;99.90
7502;DHT22;3792;47.740;7.606;2023-05-23T00:50:13;17.90;99.90
7502;DHT22;3792;47.740;7.606;2023-05-23T00:52:41;17.90;99.90
7502;DHT22;3792;47.740;7.606;2023-05-23T00:55:09;18.00;99.90
7502;DHT22;3792;47.740;7.606;2023-05-23T00:57:37;18.00;99.90
7502;DHT22;3792;47.740;7.606;2023-05-23T01:00:06;17.90;99.90
7502;DHT22;3792;47.740;7.606;2023-05-23T01:02:37;17.70;99.90
7502;DHT22;3792;47.740;7.606;2023-05-23T01:05:06;17.50;99.90
7502;DHT22;3792;47.740;7.606;2023-05-23T01:07:35;17.30;99.90
7502;DHT22;3792;47.740;7.606;2023-05-23T01:10:03;17.10;99.90
7502;DHT22;3792;47.740;7.606;2023-05-23T01:12:35;16.90;99.90
7502;DHT22;3792;47.740;7.606;2023-05-23T01:15:06;17.00;99.90
7502;DHT22;3792;47.740;7.606;2023-05-23T01:17:40;17.10;99.90
7502;DHT22;3792;47.740;7.606;2023-05-23T01:20:11;17.30;99.90
7502;DHT22;3792;47.740;7.606;2023-05-23T01:22:58;17.30;99.90
7502;DHT22;3792;47.740;7.606;2023-05-23T01:25:43;17.30;99.90
7502;DHT22;3792;47.740;7.606;2023-05-23T01:28:17;17.30;99.90
7502;DHT22;3792;47.740;7.606;2023-05-23T01:30:45;17.40;99.90
7502;DHT22;3792;47.740;7.606;2023-05-23T01:33:15;17.40;99.90
7502;DHT22;3792;47.740;7.606;2023-05-23T01:35:43;17.50;99.90
7502;DHT22;3792;47.740;7.606;2023-05-23T01:38:10;17.50;99.90
7502;DHT22;3792;47.740;7.606;2023-05-23T01:40:38;17.60;99.90
7502;DHT22;3792;47.740;7.606;2023-05-23T01:43:05;17.60;99.90
7502;DHT22;3792;47.740;7.606;2023-05-23T01:45:34;17.70;99.90
7502;DHT22;3792;47.740;7.606;2023-05-23T01:48:02;17.60;99.90
7502;DHT22;3792;47.740;7.606;2023-05-23T01:50:31;17.60;99.90
7502;DHT22;3792;47.740;7.606;2023-05-23T01:52:59;17.60;99.90
7502;DHT22;3792;47.740;7.606;2023-05-23T01:55:27;17.60;99.90
7502;DHT22;3792;47.740;7.606;2023-05-23T01:57:55;17.60;99.90
7502;DHT22;3792;47.740;7.606;2023-05-23T02:00:23;17.60;99.90
7502;DHT22;3792;47.740;7.606;2023-05-23T02:02:51;17.60;99.90
7502;DHT22;3792;47.740;7.606;2023-05-23T02:05:18;17.60;99.90
7502;DHT22;3792;47.740;7.606;2023-05-23T02:07:45;17.50;99.90
7502;DHT22;3792;47.740;7.606;2023-05-23T02:10:12;17.30;99.90
7502;DHT22;3792;47.740;7.606;2023-05-23T02:12:39;17.30;99.90
7502;DHT22;3792;47.740;7.606;2023-05-23T02:15:07;17.30;99.90
7502;DHT22;3792;47.740;7.606;2023-05-23T02:17:34;17.30;99.90
7502;DHT22;3792;47.740;7.606;2023-05-23T02:20:06;17.30;99.90
7502;DHT22;3792;47.740;7.606;2023-05-23T02:22:34;17.30;99.90
7502;DHT22;3792;47.740;7.606;2023-05-23T02:25:01;17.20;99.90
7502;DHT22;3792;47.740;7.606;2023-05-23T02:27:28;17.20;99.90
7502;DHT22;3792;47.740;7.606;2023-05-23T02:29:56;17.30;99.90
7502;DHT22;3792;47.740;7.606;2023-05-23T02:32:23;17.20;99.90
7502;DHT22;3792;47.740;7.606;2023-05-23T02:34:50;17.20;99.90
7502;DHT22;3792;47.740;7.606;2023-05-23T02:37:19;17.30;99.90
7502;DHT22;3792;47.740;7.606;2023-05-23T02:39:46;17.30;99.90
7502;DHT22;3792;47.740;7.606;2023-05-23T02:42:13;17.20;99.90
7502;DHT22;3792;47.740;7.606;2023-05-23T02:44:40;17.20;99.90
7502;DHT22;3792;47.740;7.606;2023-05-23T02:47:07;17.20;99.90
7502;DHT22;3792;47.740;7.606;2023-05-23T02:49:34;17.20;99.90
7502;DHT22;3792;47.740;7.606;2023-05-23T02:52:01;17.10;99.90
7502;DHT22;3792;47.740;7.606;2023-05-23T02:54:29;17.10;99.90
7502;DHT22;3792;47.740;7.606;2023-05-23T02:56:57;17.10;99.90
7502;DHT22;3792;47.740;7.606;2023-05-23T02:59:24;17.10;99.90
7502;DHT22;3792;47.740;7.606;2023-05-23T03:01:51;17.20;99.90
7502;DHT22;3792;47.740;7.606;2023-05-23T03:04:18;17.20;99.90
7502;DHT22;3792;47.740;7.606;2023-05-23T03:06:46;17.20;99.90
7502;DHT22;3792;47.740;7.606;2023-05-23T03:09:14;17.20;99.90
7502;DHT22;3792;47.740;7.606;2023-05-23T03:11:42;17.20;99.90
7502;DHT22;3792;47.740;7.606;2023-05-23T03:14:09;17.20;99.90
7502;DHT22;3792;47.740;7.606;2023-05-23T03:16:37;17.20;99.90
7502;DHT22;3792;47.740;7.606;2023-05-23T03:19:04;17.20;99.90
7502;DHT22;3792;47.740;7.606;2023-05-23T03:21:31;17.10;99.90
7502;DHT22;3792;47.740;7.606;2023-05-23T03:23:59;17.00;99.90
7502;DHT22;3792;47.740;7.606;2023-05-23T03:26:26;17.00;99.90
7502;DHT22;3792;47.740;7.606;2023-05-23T03:28:55;16.90;99.90
7502;DHT22;3792;47.740;7.606;2023-05-23T03:31:22;16.90;99.90
7502;DHT22;3792;47.740;7.606;2023-05-23T03:33:49;16.90;99.90
7502;DHT22;3792;47.740;7.606;2023-05-23T03:36:16;16.90;99.90
7502;DHT22;3792;47.740;7.606;2023-05-23T03:38:43;16.90;99.90
7502;DHT22;3792;47.740;7.606;2023-05-23T03:41:10;17.00;99.90
7502;DHT22;3792;47.740;7.606;2023-05-23T03:43:37;17.10;99.90
7502;DHT22;3792;47.740;7.606;2023-05-23T03:46:06;17.10;99.90
7502;DHT22;3792;47.740;7.606;2023-05-23T03:48:33;17.20;99.90
7502;DHT22;3792;47.740;7.606;2023-05-23T03:51:00;17.30;99.90
7502;DHT22;3792;47.740;7.606;2023-05-23T03:53:27;17.40;99.90
7502;DHT22;3792;47.740;7.606;2023-05-23T03:55:54;17.50;99.90
7502;DHT22;3792;47.740;7.606;2023-05-23T03:58:21;17.50;99.90
7502;DHT22;3792;47.740;7.606;2023-05-23T04:00:48;17.50;99.90
7502;DHT22;3792;47.740;7.606;2023-05-23T04:03:16;17.50;99.90
7502;DHT22;3792;47.740;7.606;2023-05-23T04:05:43;17.50;99.90
7502;DHT22;3792;47.740;7.606;2023-05-23T04:08:10;17.50;99.90
7502;DHT22;3792;47.740;7.606;2023-05-23T04:10:37;17.50;99.90
7502;DHT22;3792;47.740;7.606;2023-05-23T04:13:04;17.60;99.90
7502;DHT22;3792;47.740;7.606;2023-05-23T04:15:31;17.70;99.90
7502;DHT22;3792;47.740;7.606;2023-05-23T04:18:00;17.70;99.90
7502;DHT22;3792;47.740;7.606;2023-05-23T04:20:28;17.80;99.90
7502;DHT22;3792;47.740;7.606;2023-05-23T04:22:55;17.90;99.90
7502;DHT22;3792;47.740;7.606;2023-05-23T04:25:22;17.90;99.90
7502;DHT22;3792;47.740;7.606;2023-05-23T04:27:51;17.90;99.90
7502;DHT22;3792;47.740;7.606;2023-05-23T04:30:18;17.90;99.90
7502;DHT22;3792;47.740;7.606;2023-05-23T04:32:46;17.80;99.90
7502;DHT22;3792;47.740;7.606;2023-05-23T04:35:14;17.80;99.90
7502;DHT22;3792;47.740;7.606;2023-05-23T04:37:42;17.80;99.90
7502;DHT22;3792;47.740;7.606;2023-05-23T04:40:11;17.90;99.90
7502;DHT22;3792;47.740;7.606;2023-05-23T04:42:39;17.90;99.90
7502;DHT22;3792;47.740;7.606;2023-05-23T04:45:07;17.90;99.90
7502;DHT22;3792;47.740;7.606;2023-05-23T04:47:36;18.00;99.90
7502;DHT22;3792;47.740;7.606;2023-05-23T04:50:03;18.00;99.90
7502;DHT22;3792;47.740;7.606;2023-05-23T04:52:30;17.90;99.90
7502;DHT22;3792;47.740;7.606;2023-05-23T04:55:00;17.90;99.90
7502;DHT22;3792;47.740;7.606;2023-05-23T04:57:27;18.00;99.90
7502;DHT22;3792;47.740;7.606;2023-05-23T04:59:54;18.10;99.90
7502;DHT22;3792;47.740;7.606;2023-05-23T05:02:22;18.20;99.90
7502;DHT22;3792;47.740;7.606;2023-05-23T05:04:49;18.30;99.90
7502;DHT22;3792;47.740;7.606;2023-05-23T05:07:16;18.40;99.90
7502;DHT22;3792;47.740;7.606;2023-05-23T05:09:43;18.40;99.90
7502;DHT22;3792;47.740;7.606;2023-05-23T05:12:11;18.50;99.90
7502;DHT22;3792;47.740;7.606;2023-05-23T05:14:38;18.50;99.90
7502;DHT22;3792;47.740;7.606;2023-05-23T05:17:05;18.40;99.90
7502;DHT22;3792;47.740;7.606;2023-05-23T05:19:32;18.40;99.90
7502;DHT22;3792;47.740;7.606;2023-05-23T05:21:59;18.40;99.90
7502;DHT22;3792;47.740;7.606;2023-05-23T05:24:26;18.40;99.90
7502;DHT22;3792;47.740;7.606;2023-05-23T05:26:54;18.50;99.90
7502;DHT22;3792;47.740;7.606;2023-05-23T05:29:23;18.50;99.90
7502;DHT22;3792;47.740;7.606;2023-05-23T05:31:50;18.50;99.90
7502;DHT22;3792;47.740;7.606;2023-05-23T05:34:17;18.40;99.90
7502;DHT22;3792;47.740;7.606;2023-05-23T05:36:45;18.40;99.90
7502;DHT22;3792;47.740;7.606;2023-05-23T05:39:13;18.50;99.90
7502;DHT22;3792;47.740;7.606;2023-05-23T05:41:40;18.50;99.90
7502;DHT22;3792;47.740;7.606;2023-05-23T05:44:07;18.60;99.90
7502;DHT22;3792;47.740;7.606;2023-05-23T05:46:36;18.50;99.90
7502;DHT22;3792;47.740;7.606;2023-05-23T05:49:03;18.50;99.90
7502;DHT22;3792;47.740;7.606;2023-05-23T05:51:30;18.50;99.90
7502;DHT22;3792;47.740;7.606;2023-05-23T05:53:57;18.60;99.90
7502;DHT22;3792;47.740;7.606;2023-05-23T05:56:24;18.60;99.90
7502;DHT22;3792;47.740;7.606;2023-05-23T05:58:52;18.70;99.90
7502;DHT22;3792;47.740;7.606;2023-05-23T06:01:19;18.80;99.90
7502;DHT22;3792;47.740;7.606;2023-05-23T06:03:48;18.70;99.90
7502;DHT22;3792;47.740;7.606;2023-05-23T06:06:15;18.70;99.90
7502;DHT22;3792;47.740;7.606;2023-05-23T06:08:43;18.60;99.90
7502;DHT22;3792;47.740;7.606;2023-05-23T06:11:13;18.60;99.90
7502;DHT22;3792;47.740;7.606;2023-05-23T06:13:40;18.70;99.90
7502;DHT22;3792;47.740;7.606;2023-05-23T06:16:07;18.80;99.90
7502;DHT22;3792;47.740;7.606;2023-05-23T06:18:34;18.70;99.90
7502;DHT22;3792;47.740;7.606;2023-05-23T06:21:02;18.50;99.90
7502;DHT22;3792;47.740;7.606;2023-05-23T06:23:29;18.60;99.90
7502;DHT22;3792;47.740;7.606;2023-05-23T06:25:57;18.70;99.90
7502;DHT22;3792;47.740;7.606;2023-05-23T06:28:24;18.70;99.90
7502;DHT22;3792;47.740;7.606;2023-05-23T06:30:51;18.60;99.90
7502;DHT22;3792;47.740;7.606;2023-05-23T06:33:19;18.60;99.90
7502;DHT22;3792;47.740;7.606;2023-05-23T06:35:46;18.80;99.90
7502;DHT22;3792;47.740;7.606;2023-05-23T06:38:14;18.90;99.90
7502;DHT22;3792;47.740;7.606;2023-05-23T06:40:41;19.00;99.90
7502;DHT22;3792;47.740;7.606;2023-05-23T06:43:08;18.90;99.90
7502;DHT22;3792;47.740;7.606;2023-05-23T06:45:35;18.90;99.90
7502;DHT22;3792;47.740;7.606;2023-05-23T06:48:03;18.70;99.90
7502;DHT22;3792;47.740;7.606;2023-05-23T06:50:30;18.70;99.90
7502;DHT22;3792;47.740;7.606;2023-05-23T06:52:57;18.70;99.90
7502;DHT22;3792;47.740;7.606;2023-05-23T06:55:25;18.60;99.90
7502;DHT22;3792;47.740;7.606;2023-05-23T06:57:52;18.50;99.90
7502;DHT22;3792;47.740;7.606;2023-05-23T07:00:20;18.50;99.90
7502;DHT22;3792;47.740;7.606;2023-05-23T07:02:47;18.70;99.90
7502;DHT22;3792;47.740;7.606;2023-05-23T07:05:14;18.80;99.90
7502;DHT22;3792;47.740;7.606;2023-05-23T07:07:42;19.00;99.90
7502;DHT22;3792;47.740;7.606;2023-05-23T07:10:09;18.90;99.90
7502;DHT22;3792;47.740;7.606;2023-05-23T07:12:38;18.90;99.90
7502;DHT22;3792;47.740;7.606;2023-05-23T07:15:06;18.90;99.90
7502;DHT22;3792;47.740;7.606;2023-05-23T07:17:33;18.90;99.90
7502;DHT22;3792;47.740;7.606;2023-05-23T07:20:01;18.80;99.90
7502;DHT22;3792;47.740;7.606;2023-05-23T07:22:29;19.00;99.90
7502;DHT22;3792;47.740;7.606;2023-05-23T07:24:56;19.20;99.90
7502;DHT22;3792;47.740;7.606;2023-05-23T07:27:23;19.40;99.90
7502;DHT22;3792;47.740;7.606;2023-05-23T07:29:52;19.40;99.90
7502;DHT22;3792;47.740;7.606;2023-05-23T07:32:19;19.40;99.90
7502;DHT22;3792;47.740;7.606;2023-05-23T07:34:46;19.60;99.90
7502;DHT22;3792;47.740;7.606;2023-05-23T07:37:13;19.60;99.90
7502;DHT22;3792;47.740;7.606;2023-05-23T07:39:40;19.60;99.90
7502;DHT22;3792;47.740;7.606;2023-05-23T07:42:07;19.70;99.90
7502;DHT22;3792;47.740;7.606;2023-05-23T07:44:34;19.60;99.90
7502;DHT22;3792;47.740;7.606;2023-05-23T07:47:04;19.60;99.90
7502;DHT22;3792;47.740;7.606;2023-05-23T07:49:31;19.50;99.90
7502;DHT22;3792;47.740;7.606;2023-05-23T07:51:58;19.60;99.90
7502;DHT22;3792;47.740;7.606;2023-05-23T07:54:25;19.50;99.90
7502;DHT22;3792;47.740;7.606;2023-05-23T07:56:52;19.30;99.90
7502;DHT22;3792;47.740;7.606;2023-05-23T07:59:19;19.30;99.90
7502;DHT22;3792;47.740;7.606;2023-05-23T08:01:47;19.20;99.90
7502;DHT22;3792;47.740;7.606;2023-05-23T08:04:16;19.10;99.90
7502;DHT22;3792;47.740;7.606;2023-05-23T08:06:43;19.20;99.90
7502;DHT22;3792;47.740;7.606;2023-05-23T08:09:12;19.30;99.90
7502;DHT22;3792;47.740;7.606;2023-05-23T08:11:40;19.20;99.90
7502;DHT22;3792;47.740;7.606;2023-05-23T08:14:07;19.20;99.90
7502;DHT22;3792;47.740;7.606;2023-05-23T08:16:34;19.10;99.90
7502;DHT22;3792;47.740;7.606;2023-05-23T08:19:01;19.20;99.90
7502;DHT22;3792;47.740;7.606;2023-05-23T08:21:30;19.30;99.90
7502;DHT22;3792;47.740;7.606;2023-05-23T08:23:58;19.50;99.90
7502;DHT22;3792;47.740;7.606;2023-05-23T08:26:25;19.60;99.90
7502;DHT22;3792;47.740;7.606;2023-05-23T08:28:59;19.70;99.90
7502;DHT22;3792;47.740;7.606;2023-05-23T08:31:27;19.70;99.90
7502;DHT22;3792;47.740;7.606;2023-05-23T08:33:54;19.80;99.90
7502;DHT22;3792;47.740;7.606;2023-05-23T08:36:21;19.80;99.90
7502;DHT22;3792;47.740;7.606;2023-05-23T08:38:50;19.70;99.90
7502;DHT22;3792;47.740;7.606;2023-05-23T08:41:18;19.70;99.90
7502;DHT22;3792;47.740;7.606;2023-05-23T08:43:46;19.80;99.90
7502;DHT22;3792;47.740;7.606;2023-05-23T08:46:13;19.90;99.90
7502;DHT22;3792;47.740;7.606;2023-05-23T08:48:41;20.00;99.90
7502;DHT22;3792;47.740;7.606;2023-05-23T08:51:09;20.00;99.90
7502;DHT22;3792;47.740;7.606;2023-05-23T08:53:37;20.00;99.90
7502;DHT22;3792;47.740;7.606;2023-05-23T08:56:08;19.90;99.90
7502;DHT22;3792;47.740;7.606;2023-05-23T08:58:36;19.90;99.90
7502;DHT22;3792;47.740;7.606;2023-05-23T09:01:05;19.80;99.90
7502;DHT22;3792;47.740;7.606;2023-05-23T09:03:34;19.60;99.90
7502;DHT22;3792;47.740;7.606;2023-05-23T09:06:02;19.60;99.90
7502;DHT22;3792;47.740;7.606;2023-05-23T09:08:29;19.60;99.90
7502;DHT22;3792;47.740;7.606;2023-05-23T09:10:56;19.80;99.90
7502;DHT22;3792;47.740;7.606;2023-05-23T09:13:25;19.80;99.90
7502;DHT22;3792;47.740;7.606;2023-05-23T09:16:00;19.90;99.90
7502;DHT22;3792;47.740;7.606;2023-05-23T09:18:32;19.90;99.90
7502;DHT22;3792;47.740;7.606;2023-05-23T09:21:00;20.10;99.90
7502;DHT22;3792;47.740;7.606;2023-05-23T09:23:29;20.10;99.90
7502;DHT22;3792;47.740;7.606;2023-05-23T09:26:01;20.20;99.90
7502;DHT22;3792;47.740;7.606;2023-05-23T09:28:30;20.20;99.90
7502;DHT22;3792;47.740;7.606;2023-05-23T09:30:58;20.30;99.90
7502;DHT22;3792;47.740;7.606;2023-05-23T09:33:34;20.50;99.90
7502;DHT22;3792;47.740;7.606;2023-05-23T09:36:03;20.40;99.90
7502;DHT22;3792;47.740;7.606;2023-05-23T09:38:30;20.20;99.90
7502;DHT22;3792;47.740;7.606;2023-05-23T09:40:58;20.30;99.90
7502;DHT22;3792;47.740;7.606;2023-05-23T09:43:26;20.30;99.90
7502;DHT22;3792;47.740;7.606;2023-05-23T09:45:59;20.40;99.90
7502;DHT22;3792;47.740;7.606;2023-05-23T09:48:30;20.70;99.90
7502;DHT22;3792;47.740;7.606;2023-05-23T09:50:57;21.00;99.90
7502;DHT22;3792;47.740;7.606;2023-05-23T09:53:24;21.20;99.90
7502;DHT22;3792;47.740;7.606;2023-05-23T09:55:53;21.10;99.90
7502;DHT22;3792;47.740;7.606;2023-05-23T09:58:22;21.10;99.90
7502;DHT22;3792;47.740;7.606;2023-05-23T10:00:50;21.30;99.90
7502;DHT22;3792;47.740;7.606;2023-05-23T10:03:22;21.50;99.90
7502;DHT22;3792;47.740;7.606;2023-05-23T10:05:54;21.50;99.90
7502;DHT22;3792;47.740;7.606;2023-05-23T10:08:26;21.40;99.90
7502;DHT22;3792;47.740;7.606;2023-05-23T10:14:06;21.80;99.90
7502;DHT22;3792;47.740;7.606;2023-05-23T10:16:40;21.80;99.90
7502;DHT22;3792;47.740;7.606;2023-05-23T10:19:16;21.80;99.90
7502;DHT22;3792;47.740;7.606;2023-05-23T10:21:49;21.90;99.90
7502;DHT22;3792;47.740;7.606;2023-05-23T10:24:18;22.10;99.90
7502;DHT22;3792;47.740;7.606;2023-05-23T10:26:45;22.10;99.90
7502;DHT22;3792;47.740;7.606;2023-05-23T10:29:13;22.30;99.90
7502;DHT22;3792;47.740;7.606;2023-05-23T10:31:41;22.20;99.90
7502;DHT22;3792;47.740;7.606;2023-05-23T10:34:14;22.30;99.90
7502;DHT22;3792;47.740;7.606;2023-05-23T10:36:50;22.50;99.90
7502;DHT22;3792;47.740;7.606;2023-05-23T10:39:24;22.30;99.90
7502;DHT22;3792;47.740;7.606;2023-05-23T10:41:59;22.30;99.90
7502;DHT22;3792;47.740;7.606;2023-05-23T10:44:28;22.30;99.90
7502;DHT22;3792;47.740;7.606;2023-05-23T10:46:56;22.40;99.90
7502;DHT22;3792;47.740;7.606;2023-05-23T10:49:41;22.40;99.90
7502;DHT22;3792;47.740;7.606;2023-05-23T10:52:09;22.60;99.90
7502;DHT22;3792;47.740;7.606;2023-05-23T10:54:41;22.60;99.90
7502;DHT22;3792;47.740;7.606;2023-05-23T10:57:09;22.60;99.90
7502;DHT22;3792;47.740;7.606;2023-05-23T10:59:38;22.50;99.90
7502;DHT22;3792;47.740;7.606;2023-05-23T11:02:15;22.60;99.90
7502;DHT22;3792;47.740;7.606;2023-05-23T11:04:43;22.50;99.90
7502;DHT22;3792;47.740;7.606;2023-05-23T11:07:28;22.70;99.90
7502;DHT22;3792;47.740;7.606;2023-05-23T11:10:08;22.80;99.90
7502;DHT22;3792;47.740;7.606;2023-05-23T11:12:37;22.80;99.90
7502;DHT22;3792;47.740;7.606;2023-05-23T11:15:19;22.90;99.90
7502;DHT22;3792;47.740;7.606;2023-05-23T11:17:51;22.70;99.90
7502;DHT22;3792;47.740;7.606;2023-05-23T11:20:22;22.80;99.90
7502;DHT22;3792;47.740;7.606;2023-05-23T11:23:00;22.80;99.90
7502;DHT22;3792;47.740;7.606;2023-05-23T11:25:41;23.00;99.90
7502;DHT22;3792;47.740;7.606;2023-05-23T11:28:09;22.90;99.90
7502;DHT22;3792;47.740;7.606;2023-05-23T11:30:37;23.00;99.90
7502;DHT22;3792;47.740;7.606;2023-05-23T11:33:07;23.20;99.90
7502;DHT22;3792;47.740;7.606;2023-05-23T11:35:39;23.40;99.90
7502;DHT22;3792;47.740;7.606;2023-05-23T11:38:07;23.40;99.90
7502;DHT22;3792;47.740;7.606;2023-05-23T11:40:35;23.20;99.90
7502;DHT22;3792;47.740;7.606;2023-05-23T11:43:04;23.20;99.90
7502;DHT22;3792;47.740;7.606;2023-05-23T11:45:32;23.20;99.90
7502;DHT22;3792;47.740;7.606;2023-05-23T11:48:04;23.20;99.90
7502;DHT22;3792;47.740;7.606;2023-05-23T11:50:32;23.20;99.90
7502;DHT22;3792;47.740;7.606;2023-05-23T11:53:00;23.20;99.90
7502;DHT22;3792;47.740;7.606;2023-05-23T11:55:28;23.30;99.90
7502;DHT22;3792;47.740;7.606;2023-05-23T11:57:56;23.40;99.90
7502;DHT22;3792;47.740;7.606;2023-05-23T12:00:23;23.50;99.90
7502;DHT22;3792;47.740;7.606;2023-05-23T12:02:50;23.50;99.90
7502;DHT22;3792;47.740;7.606;2023-05-23T12:05:17;23.60;99.90
7502;DHT22;3792;47.740;7.606;2023-05-23T12:07:46;23.70;99.90
7502;DHT22;3792;47.740;7.606;2023-05-23T12:10:16;23.70;99.90
7502;DHT22;3792;47.740;7.606;2023-05-23T12:12:44;23.60;99.90
7502;DHT22;3792;47.740;7.606;2023-05-23T12:15:12;23.60;99.90
7502;DHT22;3792;47.740;7.606;2023-05-23T12:17:43;23.70;99.90
7502;DHT22;3792;47.740;7.606;2023-05-23T12:20:10;23.80;99.90
7502;DHT22;3792;47.740;7.606;2023-05-23T12:22:37;23.80;99.90
7502;DHT22;3792;47.740;7.606;2023-05-23T12:25:08;24.00;99.90
7502;DHT22;3792;47.740;7.606;2023-05-23T12:27:39;24.00;99.90
7502;DHT22;3792;47.740;7.606;2023-05-23T12:30:09;23.80;99.90
7502;DHT22;3792;47.740;7.606;2023-05-23T12:32:39;23.70;99.90
7502;DHT22;3792;47.740;7.606;2023-05-23T12:35:07;23.90;99.90
7502;DHT22;3792;47.740;7.606;2023-05-23T12:37:38;23.90;99.90
7502;DHT22;3792;47.740;7.606;2023-05-23T12:40:12;24.10;99.90
7502;DHT22;3792;47.740;7.606;2023-05-23T12:42:51;24.00;99.90
7502;DHT22;3792;47.740;7.606;2023-05-23T12:45:18;23.90;99.90
7502;DHT22;3792;47.740;7.606;2023-05-23T12:47:45;24.10;99.90
7502;DHT22;3792;47.740;7.606;2023-05-23T12:50:12;24.20;99.90
7502;DHT22;3792;47.740;7.606;2023-05-23T12:52:39;24.30;99.90
7502;DHT22;3792;47.740;7.606;2023-05-23T12:55:07;24.60;99.90
7502;DHT22;3792;47.740;7.606;2023-05-23T12:57:35;24.40;99.90
7502;DHT22;3792;47.740;7.606;2023-05-23T13:00:04;24.10;99.90
7502;DHT22;3792;47.740;7.606;2023-05-23T13:02:32;24.10;99.90
7502;DHT22;3792;47.740;7.606;2023-05-23T13:04:59;24.20;99.90
7502;DHT22;3792;47.740;7.606;2023-05-23T13:07:26;24.10;99.90
7502;DHT22;3792;47.740;7.606;2023-05-23T13:09:54;24.20;99.90
7502;DHT22;3792;47.740;7.606;2023-05-23T13:12:21;24.20;99.90
7502;DHT22;3792;47.740;7.606;2023-05-23T13:14:48;24.00;99.90
7502;DHT22;3792;47.740;7.606;2023-05-23T13:17:17;23.90;99.90
7502;DHT22;3792;47.740;7.606;2023-05-23T13:19:44;23.90;99.90
7502;DHT22;3792;47.740;7.606;2023-05-23T13:22:12;24.20;99.90
7502;DHT22;3792;47.740;7.606;2023-05-23T13:24:39;24.20;99.90
7502;DHT22;3792;47.740;7.606;2023-05-23T13:27:08;24.20;99.90
7502;DHT22;3792;47.740;7.606;2023-05-23T13:29:35;24.30;99.90
7502;DHT22;3792;47.740;7.606;2023-05-23T13:32:02;24.40;99.90
7502;DHT22;3792;47.740;7.606;2023-05-23T13:34:31;24.20;99.90
7502;DHT22;3792;47.740;7.606;2023-05-23T13:37:02;24.30;99.90
7502;DHT22;3792;47.740;7.606;2023-05-23T13:39:29;24.50;99.90
7502;DHT22;3792;47.740;7.606;2023-05-23T13:41:56;24.50;99.90
7502;DHT22;3792;47.740;7.606;2023-05-23T13:44:23;24.60;99.90
7502;DHT22;3792;47.740;7.606;2023-05-23T13:46:50;24.40;99.90
7502;DHT22;3792;47.740;7.606;2023-05-23T13:49:17;24.30;99.90
7502;DHT22;3792;47.740;7.606;2023-05-23T13:51:45;24.20;99.90
7502;DHT22;3792;47.740;7.606;2023-05-23T13:54:14;24.10;99.90
7502;DHT22;3792;47.740;7.606;2023-05-23T13:56:41;24.20;99.90
7502;DHT22;3792;47.740;7.606;2023-05-23T13:59:08;24.30;99.90
7502;DHT22;3792;47.740;7.606;2023-05-23T14:01:35;24.10;99.90
7502;DHT22;3792;47.740;7.606;2023-05-23T14:04:02;23.90;99.90
7502;DHT22;3792;47.740;7.606;2023-05-23T14:06:30;23.90;99.90
7502;DHT22;3792;47.740;7.606;2023-05-23T14:08:59;24.00;99.90
7502;DHT22;3792;47.740;7.606;2023-05-23T14:11:26;24.20;99.90
7502;DHT22;3792;47.740;7.606;2023-05-23T14:13:54;24.20;99.90
7502;DHT22;3792;47.740;7.606;2023-05-23T14:16:21;24.00;99.90
7502;DHT22;3792;47.740;7.606;2023-05-23T14:18:48;24.00;99.90
7502;DHT22;3792;47.740;7.606;2023-05-23T14:21:15;24.20;99.90
7502;DHT22;3792;47.740;7.606;2023-05-23T14:23:42;24.10;99.90
7502;DHT22;3792;47.740;7.606;2023-05-23T14:26:11;24.00;99.90
7502;DHT22;3792;47.740;7.606;2023-05-23T14:28:38;24.30;99.90
7502;DHT22;3792;47.740;7.606;2023-05-23T14:31:05;24.10;99.90
7502;DHT22;3792;47.740;7.606;2023-05-23T14:33:32;24.30;99.90
7502;DHT22;3792;47.740;7.606;2023-05-23T14:35:59;24.30;99.90
7502;DHT22;3792;47.740;7.606;2023-05-23T14:38:26;24.40;99.90
7502;DHT22;3792;47.740;7.606;2023-05-23T14:40:53;24.50;99.90
7502;DHT22;3792;47.740;7.606;2023-05-23T14:43:22;24.50;99.90
7502;DHT22;3792;47.740;7.606;2023-05-23T14:45:49;24.20;99.90
7502;DHT22;3792;47.740;7.606;2023-05-23T14:48:16;24.20;99.90
7502;DHT22;3792;47.740;7.606;2023-05-23T14:50:43;24.00;99.90
7502;DHT22;3792;47.740;7.606;2023-05-23T14:53:10;23.90;99.90
7502;DHT22;3792;47.740;7.606;2023-05-23T14:55:38;23.70;99.90
7502;DHT22;3792;47.740;7.606;2023-05-23T14:58:05;23.50;99.90
7502;DHT22;3792;47.740;7.606;2023-05-23T15:00:33;23.60;99.90
7502;DHT22;3792;47.740;7.606;2023-05-23T15:03:00;23.80;99.90
7502;DHT22;3792;47.740;7.606;2023-05-23T15:05:27;23.60;99.90
7502;DHT22;3792;47.740;7.606;2023-05-23T15:07:54;23.90;99.90
7502;DHT22;3792;47.740;7.606;2023-05-23T15:10:21;24.00;99.90
7502;DHT22;3792;47.740;7.606;2023-05-23T15:12:48;23.80;99.90
7502;DHT22;3792;47.740;7.606;2023-05-23T15:15:16;23.90;99.90
7502;DHT22;3792;47.740;7.606;2023-05-23T15:17:49;23.80;99.90
7502;DHT22;3792;47.740;7.606;2023-05-23T15:20:17;23.70;99.90
7502;DHT22;3792;47.740;7.606;2023-05-23T15:22:44;23.70;99.90
7502;DHT22;3792;47.740;7.606;2023-05-23T15:25:11;23.90;99.90
7502;DHT22;3792;47.740;7.606;2023-05-23T15:27:38;23.80;99.90
7502;DHT22;3792;47.740;7.606;2023-05-23T15:30:06;23.70;99.90
7502;DHT22;3792;47.740;7.606;2023-05-23T15:32:33;23.30;99.90
7502;DHT22;3792;47.740;7.606;2023-05-23T15:35:01;23.20;99.90
7502;DHT22;3792;47.740;7.606;2023-05-23T15:37:28;23.40;99.90
7502;DHT22;3792;47.740;7.606;2023-05-23T15:39:55;23.40;99.90
7502;DHT22;3792;47.740;7.606;2023-05-23T15:42:22;23.50;99.90
7502;DHT22;3792;47.740;7.606;2023-05-23T15:44:49;23.40;99.90
7502;DHT22;3792;47.740;7.606;2023-05-23T15:47:16;23.10;99.90
7502;DHT22;3792;47.740;7.606;2023-05-23T15:49:45;23.00;99.90
7502;DHT22;3792;47.740;7.606;2023-05-23T15:52:13;23.00;99.90
7502;DHT22;3792;47.740;7.606;2023-05-23T15:54:40;22.90;99.90
7502;DHT22;3792;47.740;7.606;2023-05-23T15:57:07;22.80;99.90
7502;DHT22;3792;47.740;7.606;2023-05-23T15:59:35;22.50;99.90
7502;DHT22;3792;47.740;7.606;2023-05-23T16:02:03;22.30;99.90
7502;DHT22;3792;47.740;7.606;2023-05-23T16:04:30;22.20;99.90
7502;DHT22;3792;47.740;7.606;2023-05-23T16:06:57;21.90;99.90
7502;DHT22;3792;47.740;7.606;2023-05-23T16:09:26;21.60;99.90
7502;DHT22;3792;47.740;7.606;2023-05-23T16:11:53;21.40;99.90